createdAt,value
2022-10-01T00:12:46.585Z,964.04163
2022-10-01T00:27:48.951Z,759.08789
2022-10-01T00:42:51.568Z,617.03003
2022-10-01T00:57:53.848Z,401.23218
2022-10-01T01:12:56.091Z,259.17429
2022-10-01T01:27:58.612Z,79.16203
2022-10-01T01:43:00.999Z,14.09735
2022-10-01T01:58:03.228Z,1.08441
2022-10-01T02:13:05.631Z,0
2022-10-01T02:28:07.972Z,0
2022-10-01T02:43:10.335Z,0
2022-10-01T02:58:12.682Z,0
2022-10-01T03:13:15.184Z,0
2022-10-01T03:28:17.647Z,0
2022-10-01T03:43:19.960Z,0
2022-10-01T03:58:22.194Z,0
2022-10-01T04:13:24.564Z,0
2022-10-01T04:28:26.923Z,0
2022-10-01T04:43:29.633Z,0
2022-10-01T04:58:31.933Z,0
2022-10-01T05:13:34.180Z,0
2022-10-01T05:28:36.612Z,0
2022-10-01T05:43:39.057Z,0
2022-10-01T05:58:41.398Z,0
2022-10-01T06:13:43.649Z,0
2022-10-01T06:28:45.975Z,0
2022-10-01T06:43:48.261Z,0
2022-10-01T06:58:50.556Z,0
2022-10-01T07:13:54.727Z,0
2022-10-01T07:28:57.340Z,0
2022-10-01T07:43:59.628Z,0
2022-10-01T07:59:02.005Z,0
2022-10-01T08:14:04.350Z,0
2022-10-01T08:29:06.701Z,0
2022-10-01T08:44:09.035Z,0
2022-10-01T08:59:11.345Z,0
2022-10-01T09:14:13.791Z,0
2022-10-01T09:29:16.067Z,0
2022-10-01T09:44:19.020Z,0
2022-10-01T09:59:21.435Z,0
2022-10-01T10:14:23.708Z,0
2022-10-01T10:29:26.003Z,0
2022-10-01T10:44:28.376Z,0
2022-10-01T10:59:30.720Z,0
2022-10-01T11:14:33.007Z,0
2022-10-01T11:29:35.372Z,0
2022-10-01T11:44:37.660Z,0
2022-10-01T11:59:39.904Z,0
2022-10-01T12:14:42.256Z,0
2022-10-01T12:29:44.557Z,0
2022-10-01T12:44:46.832Z,0
2022-10-01T12:59:49.107Z,0
2022-10-01T13:14:51.423Z,0
2022-10-01T13:29:53.729Z,2.16882
2022-10-01T13:44:55.982Z,30.36352
2022-10-01T13:59:58.251Z,125.79171
2022-10-01T14:15:00.545Z,263.51193
2022-10-01T14:30:02.836Z,468.46567
2022-10-01T14:45:05.151Z,701.61407
2022-10-01T15:00:07.526Z,1898.80408
2022-10-01T15:15:09.819Z,2628.61279
2022-10-01T15:30:12.151Z,2177.4978
2022-10-01T15:45:14.415Z,5327.7124
2022-10-01T16:00:16.887Z,15614.4375
2022-10-01T16:15:19.415Z,14678.59082
2022-10-01T16:30:21.774Z,3564.45972
2022-10-01T16:45:24.097Z,11015.44922
2022-10-01T17:00:26.349Z,7740.52783
2022-10-01T17:15:28.743Z,6703.83057
2022-10-01T17:30:31.039Z,6425.13672
2022-10-01T17:45:33.458Z,6286.33203
2022-10-01T18:00:35.806Z,6175.72217
2022-10-01T18:15:38.083Z,6314.52686
2022-10-01T18:30:40.401Z,5990.2876
2022-10-01T18:45:42.788Z,6400.19531
2022-10-01T19:00:45.328Z,6563.94141
2022-10-01T19:15:47.662Z,6545.50635
2022-10-01T19:30:49.959Z,6392.60449
2022-10-01T19:45:52.261Z,6407.78613
2022-10-01T20:00:54.620Z,5696.4126
2022-10-01T20:15:57.211Z,5284.33594
2022-10-01T20:30:59.543Z,5073.96045
2022-10-01T20:46:01.968Z,4991.54492
2022-10-01T21:01:04.482Z,5561.94531
2022-10-01T21:16:07.061Z,5244.21289
2022-10-01T21:31:09.408Z,4647.78662
2022-10-01T21:46:11.816Z,4195.5874
2022-10-01T22:01:14.184Z,3348.66187
2022-10-01T22:16:16.606Z,2824.89136
2022-10-01T22:31:18.994Z,2629.69727
2022-10-01T22:46:21.287Z,2454.02271
2022-10-01T23:01:23.747Z,2642.71021
2022-10-01T23:16:26.217Z,2647.04785
2022-10-01T23:31:28.750Z,2188.34204
2022-10-01T23:46:31.188Z,1658.06482
